sensor_id;sensor_type;location;lat;lon;timestamp;P1;durP1;ratioP1;P2;durP2;ratioP2
21036;SDS011;10677;50.942;4.028;2022-09-19T00:01:17;13.55;;;2.00;;
21036;SDS011;10677;50.942;4.028;2022-09-19T00:03:53;11.07;;;1.60;;
21036;SDS011;10677;50.942;4.028;2022-09-19T00:06:23;11.00;;;2.00;;
21036;SDS011;10677;50.942;4.028;2022-09-19T00:08:51;10.18;;;2.25;;
21036;SDS011;10677;50.942;4.028;2022-09-19T00:11:17;9.63;;;1.73;;
21036;SDS011;10677;50.942;4.028;2022-09-19T00:13:44;14.85;;;1.73;;
21036;SDS011;10677;50.942;4.028;2022-09-19T00:16:15;12.90;;;2.22;;
21036;SDS011;10677;50.942;4.028;2022-09-19T00:18:47;6.07;;;1.60;;
21036;SDS011;10677;50.942;4.028;2022-09-19T00:21:23;13.35;;;1.90;;
21036;SDS011;10677;50.942;4.028;2022-09-19T00:23:52;10.25;;;1.70;;
21036;SDS011;10677;50.942;4.028;2022-09-19T00:26:37;7.22;;;1.58;;
21036;SDS011;10677;50.942;4.028;2022-09-19T00:29:04;8.68;;;1.88;;
21036;SDS011;10677;50.942;4.028;2022-09-19T00:31:31;9.38;;;1.33;;
21036;SDS011;10677;50.942;4.028;2022-09-19T00:33:57;13.55;;;2.03;;
21036;SDS011;10677;50.942;4.028;2022-09-19T00:36:22;11.80;;;1.75;;
21036;SDS011;10677;50.942;4.028;2022-09-19T00:38:49;11.52;;;1.65;;
21036;SDS011;10677;50.942;4.028;2022-09-19T00:41:19;11.32;;;1.60;;
21036;SDS011;10677;50.942;4.028;2022-09-19T00:43:51;6.65;;;1.73;;
21036;SDS011;10677;50.942;4.028;2022-09-19T00:46:28;12.35;;;1.70;;
21036;SDS011;10677;50.942;4.028;2022-09-19T00:49:06;13.70;;;1.88;;
21036;SDS011;10677;50.942;4.028;2022-09-19T00:51:40;10.85;;;1.60;;
21036;SDS011;10677;50.942;4.028;2022-09-19T00:54:16;11.63;;;1.65;;
21036;SDS011;10677;50.942;4.028;2022-09-19T00:56:49;14.60;;;1.60;;
21036;SDS011;10677;50.942;4.028;2022-09-19T00:59:18;10.57;;;1.48;;
21036;SDS011;10677;50.942;4.028;2022-09-19T01:01:46;7.43;;;1.50;;
21036;SDS011;10677;50.942;4.028;2022-09-19T01:15:45;16.20;;;1.98;;
21036;SDS011;10677;50.942;4.028;2022-09-19T01:18:28;8.85;;;1.70;;
21036;SDS011;10677;50.942;4.028;2022-09-19T01:21:06;9.05;;;1.40;;
21036;SDS011;10677;50.942;4.028;2022-09-19T01:29:45;5.32;;;1.30;;
21036;SDS011;10677;50.942;4.028;2022-09-19T01:32:35;5.30;;;1.17;;
21036;SDS011;10677;50.942;4.028;2022-09-19T01:35:17;15.35;;;1.55;;
21036;SDS011;10677;50.942;4.028;2022-09-19T01:38:00;9.40;;;1.25;;
21036;SDS011;10677;50.942;4.028;2022-09-19T01:40:39;10.48;;;1.50;;
21036;SDS011;10677;50.942;4.028;2022-09-19T01:43:11;7.63;;;1.30;;
21036;SDS011;10677;50.942;4.028;2022-09-19T01:45:37;12.00;;;1.50;;
21036;SDS011;10677;50.942;4.028;2022-09-19T01:48:08;7.72;;;1.52;;
21036;SDS011;10677;50.942;4.028;2022-09-19T01:53:55;14.20;;;2.17;;
21036;SDS011;10677;50.942;4.028;2022-09-19T01:57:07;12.00;;;1.55;;
21036;SDS011;10677;50.942;4.028;2022-09-19T02:02:13;9.20;;;1.52;;
21036;SDS011;10677;50.942;4.028;2022-09-19T02:05:03;8.25;;;1.65;;
21036;SDS011;10677;50.942;4.028;2022-09-19T02:07:39;10.18;;;1.70;;
21036;SDS011;10677;50.942;4.028;2022-09-19T02:10:26;6.97;;;1.23;;
21036;SDS011;10677;50.942;4.028;2022-09-19T02:12:57;10.57;;;1.25;;
21036;SDS011;10677;50.942;4.028;2022-09-19T02:15:28;5.30;;;1.63;;
21036;SDS011;10677;50.942;4.028;2022-09-19T02:18:01;3.20;;;1.13;;
21036;SDS011;10677;50.942;4.028;2022-09-19T02:20:33;7.30;;;1.38;;
21036;SDS011;10677;50.942;4.028;2022-09-19T02:23:19;7.55;;;1.38;;
21036;SDS011;10677;50.942;4.028;2022-09-19T02:25:49;14.85;;;1.70;;
21036;SDS011;10677;50.942;4.028;2022-09-19T02:28:22;11.38;;;1.50;;
21036;SDS011;10677;50.942;4.028;2022-09-19T02:30:54;7.35;;;1.33;;
21036;SDS011;10677;50.942;4.028;2022-09-19T02:33:20;13.15;;;2.03;;
21036;SDS011;10677;50.942;4.028;2022-09-19T02:35:48;8.27;;;1.58;;
21036;SDS011;10677;50.942;4.028;2022-09-19T02:38:25;11.63;;;2.33;;
21036;SDS011;10677;50.942;4.028;2022-09-19T02:41:05;12.82;;;1.90;;
21036;SDS011;10677;50.942;4.028;2022-09-19T02:43:53;9.30;;;1.73;;
21036;SDS011;10677;50.942;4.028;2022-09-19T02:51:55;10.73;;;1.55;;
21036;SDS011;10677;50.942;4.028;2022-09-19T02:54:26;10.25;;;1.63;;
21036;SDS011;10677;50.942;4.028;2022-09-19T02:56:57;9.27;;;1.55;;
21036;SDS011;10677;50.942;4.028;2022-09-19T02:59:30;9.65;;;1.55;;
21036;SDS011;10677;50.942;4.028;2022-09-19T03:02:00;14.55;;;1.50;;
21036;SDS011;10677;50.942;4.028;2022-09-19T03:04:32;11.90;;;1.67;;
21036;SDS011;10677;50.942;4.028;2022-09-19T03:07:22;11.38;;;1.98;;
21036;SDS011;10677;50.942;4.028;2022-09-19T03:10:17;7.93;;;1.67;;
21036;SDS011;10677;50.942;4.028;2022-09-19T03:15:36;8.77;;;2.00;;
21036;SDS011;10677;50.942;4.028;2022-09-19T03:18:04;9.32;;;1.85;;
21036;SDS011;10677;50.942;4.028;2022-09-19T03:20:34;10.52;;;2.33;;
21036;SDS011;10677;50.942;4.028;2022-09-19T03:23:02;12.52;;;2.13;;
21036;SDS011;10677;50.942;4.028;2022-09-19T03:25:29;9.75;;;1.80;;
21036;SDS011;10677;50.942;4.028;2022-09-19T03:27:56;9.60;;;1.50;;
21036;SDS011;10677;50.942;4.028;2022-09-19T03:30:22;11.70;;;2.15;;
21036;SDS011;10677;50.942;4.028;2022-09-19T03:32:48;13.82;;;2.05;;
21036;SDS011;10677;50.942;4.028;2022-09-19T03:35:14;9.48;;;1.58;;
21036;SDS011;10677;50.942;4.028;2022-09-19T03:37:40;9.30;;;2.00;;
21036;SDS011;10677;50.942;4.028;2022-09-19T03:40:06;10.90;;;1.77;;
21036;SDS011;10677;50.942;4.028;2022-09-19T03:42:32;8.93;;;1.75;;
21036;SDS011;10677;50.942;4.028;2022-09-19T03:45:00;7.07;;;1.65;;
21036;SDS011;10677;50.942;4.028;2022-09-19T03:47:26;13.23;;;1.67;;
21036;SDS011;10677;50.942;4.028;2022-09-19T03:49:52;6.55;;;1.73;;
21036;SDS011;10677;50.942;4.028;2022-09-19T03:52:18;9.18;;;1.98;;
21036;SDS011;10677;50.942;4.028;2022-09-19T03:54:44;7.95;;;1.90;;
21036;SDS011;10677;50.942;4.028;2022-09-19T03:57:13;12.35;;;1.95;;
21036;SDS011;10677;50.942;4.028;2022-09-19T03:59:39;9.88;;;1.85;;
21036;SDS011;10677;50.942;4.028;2022-09-19T04:02:11;7.53;;;1.90;;
21036;SDS011;10677;50.942;4.028;2022-09-19T04:04:37;7.38;;;2.00;;
21036;SDS011;10677;50.942;4.028;2022-09-19T04:07:04;12.88;;;2.22;;
21036;SDS011;10677;50.942;4.028;2022-09-19T04:09:30;8.45;;;1.70;;
21036;SDS011;10677;50.942;4.028;2022-09-19T04:11:56;14.93;;;1.90;;
21036;SDS011;10677;50.942;4.028;2022-09-19T04:14:24;9.63;;;1.65;;
21036;SDS011;10677;50.942;4.028;2022-09-19T04:16:51;8.85;;;1.70;;
21036;SDS011;10677;50.942;4.028;2022-09-19T04:19:17;11.00;;;2.03;;
21036;SDS011;10677;50.942;4.028;2022-09-19T04:21:43;8.70;;;1.80;;
21036;SDS011;10677;50.942;4.028;2022-09-19T04:24:09;11.98;;;2.58;;
21036;SDS011;10677;50.942;4.028;2022-09-19T04:26:36;8.82;;;1.90;;
21036;SDS011;10677;50.942;4.028;2022-09-19T04:29:02;8.23;;;1.83;;
21036;SDS011;10677;50.942;4.028;2022-09-19T04:31:32;10.75;;;2.40;;
21036;SDS011;10677;50.942;4.028;2022-09-19T04:34:08;10.25;;;2.30;;
21036;SDS011;10677;50.942;4.028;2022-09-19T04:36:41;13.55;;;3.10;;
21036;SDS011;10677;50.942;4.028;2022-09-19T04:39:08;10.40;;;3.42;;
21036;SDS011;10677;50.942;4.028;2022-09-19T04:41:35;18.15;;;4.60;;
21036;SDS011;10677;50.942;4.028;2022-09-19T04:44:02;13.55;;;3.60;;
21036;SDS011;10677;50.942;4.028;2022-09-19T04:46:29;16.25;;;3.85;;
21036;SDS011;10677;50.942;4.028;2022-09-19T04:48:56;11.80;;;3.63;;
21036;SDS011;10677;50.942;4.028;2022-09-19T04:51:22;8.80;;;2.60;;
21036;SDS011;10677;50.942;4.028;2022-09-19T04:53:49;11.32;;;2.60;;
21036;SDS011;10677;50.942;4.028;2022-09-19T04:56:15;11.15;;;3.03;;
21036;SDS011;10677;50.942;4.028;2022-09-19T04:58:43;7.97;;;2.05;;
21036;SDS011;10677;50.942;4.028;2022-09-19T05:01:09;8.10;;;2.05;;
21036;SDS011;10677;50.942;4.028;2022-09-19T05:03:36;11.45;;;2.13;;
21036;SDS011;10677;50.942;4.028;2022-09-19T05:06:02;9.50;;;2.30;;
21036;SDS011;10677;50.942;4.028;2022-09-19T05:08:31;11.73;;;2.35;;
21036;SDS011;10677;50.942;4.028;2022-09-19T05:11:01;16.17;;;3.28;;
21036;SDS011;10677;50.942;4.028;2022-09-19T05:13:29;8.93;;;2.10;;
21036;SDS011;10677;50.942;4.028;2022-09-19T05:15:56;12.07;;;2.63;;
21036;SDS011;10677;50.942;4.028;2022-09-19T05:18:23;7.68;;;1.85;;
21036;SDS011;10677;50.942;4.028;2022-09-19T05:20:49;12.88;;;2.97;;
21036;SDS011;10677;50.942;4.028;2022-09-19T05:23:17;13.30;;;4.25;;
21036;SDS011;10677;50.942;4.028;2022-09-19T05:25:43;13.75;;;8.15;;
21036;SDS011;10677;50.942;4.028;2022-09-19T05:28:08;11.65;;;3.08;;
21036;SDS011;10677;50.942;4.028;2022-09-19T05:30:38;9.43;;;3.70;;
21036;SDS011;10677;50.942;4.028;2022-09-19T05:33:10;10.10;;;2.97;;
21036;SDS011;10677;50.942;4.028;2022-09-19T05:35:36;11.32;;;3.00;;
21036;SDS011;10677;50.942;4.028;2022-09-19T05:38:03;8.90;;;2.20;;
21036;SDS011;10677;50.942;4.028;2022-09-19T05:40:29;10.68;;;2.20;;
21036;SDS011;10677;50.942;4.028;2022-09-19T05:42:55;10.95;;;1.90;;
21036;SDS011;10677;50.942;4.028;2022-09-19T05:45:25;7.75;;;2.05;;
21036;SDS011;10677;50.942;4.028;2022-09-19T05:47:51;9.70;;;2.28;;
21036;SDS011;10677;50.942;4.028;2022-09-19T05:50:23;10.25;;;2.83;;
21036;SDS011;10677;50.942;4.028;2022-09-19T05:52:51;10.50;;;3.22;;
21036;SDS011;10677;50.942;4.028;2022-09-19T05:55:36;9.73;;;2.42;;
21036;SDS011;10677;50.942;4.028;2022-09-19T05:58:02;10.65;;;1.95;;
21036;SDS011;10677;50.942;4.028;2022-09-19T06:00:31;10.73;;;2.80;;
21036;SDS011;10677;50.942;4.028;2022-09-19T06:02:57;6.78;;;1.75;;
21036;SDS011;10677;50.942;4.028;2022-09-19T06:05:28;7.53;;;2.15;;
21036;SDS011;10677;50.942;4.028;2022-09-19T06:07:58;14.95;;;2.92;;
21036;SDS011;10677;50.942;4.028;2022-09-19T06:10:25;12.93;;;2.90;;
21036;SDS011;10677;50.942;4.028;2022-09-19T06:12:55;12.98;;;2.80;;
21036;SDS011;10677;50.942;4.028;2022-09-19T06:15:21;12.27;;;2.42;;
21036;SDS011;10677;50.942;4.028;2022-09-19T06:17:46;14.93;;;2.83;;
21036;SDS011;10677;50.942;4.028;2022-09-19T06:20:18;19.95;;;3.17;;
21036;SDS011;10677;50.942;4.028;2022-09-19T06:22:43;12.23;;;2.42;;
21036;SDS011;10677;50.942;4.028;2022-09-19T06:25:09;8.82;;;2.50;;
21036;SDS011;10677;50.942;4.028;2022-09-19T06:27:35;10.80;;;2.50;;
21036;SDS011;10677;50.942;4.028;2022-09-19T06:30:03;11.43;;;2.25;;
21036;SDS011;10677;50.942;4.028;2022-09-19T06:32:30;7.88;;;2.38;;
21036;SDS011;10677;50.942;4.028;2022-09-19T06:34:56;6.65;;;2.42;;
21036;SDS011;10677;50.942;4.028;2022-09-19T06:37:22;15.75;;;2.80;;
21036;SDS011;10677;50.942;4.028;2022-09-19T06:39:49;8.48;;;2.20;;
21036;SDS011;10677;50.942;4.028;2022-09-19T06:42:15;13.20;;;2.28;;
21036;SDS011;10677;50.942;4.028;2022-09-19T06:44:40;10.88;;;2.95;;
21036;SDS011;10677;50.942;4.028;2022-09-19T06:47:06;14.60;;;5.15;;
21036;SDS011;10677;50.942;4.028;2022-09-19T06:49:32;12.82;;;3.22;;
21036;SDS011;10677;50.942;4.028;2022-09-19T06:51:58;13.18;;;3.20;;
21036;SDS011;10677;50.942;4.028;2022-09-19T06:54:23;17.17;;;3.60;;
21036;SDS011;10677;50.942;4.028;2022-09-19T06:56:49;12.63;;;3.10;;
21036;SDS011;10677;50.942;4.028;2022-09-19T06:59:17;13.30;;;3.20;;
21036;SDS011;10677;50.942;4.028;2022-09-19T07:01:43;13.15;;;3.05;;
21036;SDS011;10677;50.942;4.028;2022-09-19T07:04:12;9.45;;;2.95;;
21036;SDS011;10677;50.942;4.028;2022-09-19T07:06:38;15.70;;;3.17;;
21036;SDS011;10677;50.942;4.028;2022-09-19T07:09:04;13.00;;;3.20;;
21036;SDS011;10677;50.942;4.028;2022-09-19T07:11:32;12.85;;;2.60;;
21036;SDS011;10677;50.942;4.028;2022-09-19T07:14:00;6.60;;;2.67;;
21036;SDS011;10677;50.942;4.028;2022-09-19T07:16:27;16.20;;;3.42;;
21036;SDS011;10677;50.942;4.028;2022-09-19T07:18:52;13.05;;;3.20;;
21036;SDS011;10677;50.942;4.028;2022-09-19T07:21:18;11.32;;;3.33;;
21036;SDS011;10677;50.942;4.028;2022-09-19T07:23:43;11.60;;;3.20;;
21036;SDS011;10677;50.942;4.028;2022-09-19T07:26:13;12.60;;;2.83;;
21036;SDS011;10677;50.942;4.028;2022-09-19T07:28:39;10.60;;;3.38;;
21036;SDS011;10677;50.942;4.028;2022-09-19T07:31:04;10.07;;;2.72;;
21036;SDS011;10677;50.942;4.028;2022-09-19T07:33:30;9.50;;;2.63;;
21036;SDS011;10677;50.942;4.028;2022-09-19T07:35:56;6.50;;;2.30;;
21036;SDS011;10677;50.942;4.028;2022-09-19T07:38:23;9.73;;;2.45;;
21036;SDS011;10677;50.942;4.028;2022-09-19T07:40:50;15.77;;;3.10;;
21036;SDS011;10677;50.942;4.028;2022-09-19T07:43:16;9.48;;;2.20;;
21036;SDS011;10677;50.942;4.028;2022-09-19T07:45:45;8.70;;;2.80;;
21036;SDS011;10677;50.942;4.028;2022-09-19T07:48:13;6.80;;;2.50;;
21036;SDS011;10677;50.942;4.028;2022-09-19T07:50:39;12.20;;;2.53;;
21036;SDS011;10677;50.942;4.028;2022-09-19T07:53:06;9.77;;;2.30;;
21036;SDS011;10677;50.942;4.028;2022-09-19T07:55:34;9.05;;;2.60;;
21036;SDS011;10677;50.942;4.028;2022-09-19T07:58:03;13.07;;;2.80;;
21036;SDS011;10677;50.942;4.028;2022-09-19T08:00:30;12.32;;;2.60;;
21036;SDS011;10677;50.942;4.028;2022-09-19T08:02:58;14.25;;;3.30;;
21036;SDS011;10677;50.942;4.028;2022-09-19T08:05:26;12.32;;;2.95;;
21036;SDS011;10677;50.942;4.028;2022-09-19T08:07:53;10.23;;;2.67;;
21036;SDS011;10677;50.942;4.028;2022-09-19T08:10:20;17.95;;;3.25;;
21036;SDS011;10677;50.942;4.028;2022-09-19T08:12:46;6.95;;;2.20;;
21036;SDS011;10677;50.942;4.028;2022-09-19T08:15:13;11.77;;;2.35;;
21036;SDS011;10677;50.942;4.028;2022-09-19T08:17:41;9.40;;;2.28;;
21036;SDS011;10677;50.942;4.028;2022-09-19T08:20:31;8.35;;;2.50;;
21036;SDS011;10677;50.942;4.028;2022-09-19T08:22:59;12.25;;;2.85;;
21036;SDS011;10677;50.942;4.028;2022-09-19T08:25:27;10.15;;;3.45;;
21036;SDS011;10677;50.942;4.028;2022-09-19T08:27:55;10.63;;;2.38;;
21036;SDS011;10677;50.942;4.028;2022-09-19T08:30:22;8.68;;;2.00;;
21036;SDS011;10677;50.942;4.028;2022-09-19T08:32:49;6.68;;;1.92;;
21036;SDS011;10677;50.942;4.028;2022-09-19T08:35:16;7.57;;;1.95;;
21036;SDS011;10677;50.942;4.028;2022-09-19T08:37:43;7.68;;;2.17;;
21036;SDS011;10677;50.942;4.028;2022-09-19T08:40:16;8.82;;;2.13;;
21036;SDS011;10677;50.942;4.028;2022-09-19T08:46:16;6.57;;;1.63;;
21036;SDS011;10677;50.942;4.028;2022-09-19T08:49:04;14.10;;;1.85;;
21036;SDS011;10677;50.942;4.028;2022-09-19T08:54:16;8.25;;;1.30;;
21036;SDS011;10677;50.942;4.028;2022-09-19T08:56:57;11.40;;;2.00;;
21036;SDS011;10677;50.942;4.028;2022-09-19T08:59:24;12.82;;;1.90;;
21036;SDS011;10677;50.942;4.028;2022-09-19T09:02:04;7.88;;;1.58;;
21036;SDS011;10677;50.942;4.028;2022-09-19T09:04:32;8.65;;;1.67;;
21036;SDS011;10677;50.942;4.028;2022-09-19T09:07:02;12.38;;;2.70;;
21036;SDS011;10677;50.942;4.028;2022-09-19T09:15:25;11.00;;;2.03;;
21036;SDS011;10677;50.942;4.028;2022-09-19T09:21:02;8.43;;;1.45;;
21036;SDS011;10677;50.942;4.028;2022-09-19T09:23:39;10.48;;;1.58;;
21036;SDS011;10677;50.942;4.028;2022-09-19T09:26:13;11.05;;;1.85;;
21036;SDS011;10677;50.942;4.028;2022-09-19T09:31:22;13.38;;;2.20;;
21036;SDS011;10677;50.942;4.028;2022-09-19T09:33:58;8.35;;;2.03;;
21036;SDS011;10677;50.942;4.028;2022-09-19T09:36:42;7.13;;;1.20;;
21036;SDS011;10677;50.942;4.028;2022-09-19T09:39:20;8.10;;;1.85;;
21036;SDS011;10677;50.942;4.028;2022-09-19T09:41:52;8.05;;;1.75;;
21036;SDS011;10677;50.942;4.028;2022-09-19T09:44:36;9.77;;;1.70;;
21036;SDS011;10677;50.942;4.028;2022-09-19T09:47:29;7.88;;;1.30;;
21036;SDS011;10677;50.942;4.028;2022-09-19T09:52:56;9.32;;;1.95;;
21036;SDS011;10677;50.942;4.028;2022-09-19T10:02:07;11.65;;;1.80;;
21036;SDS011;10677;50.942;4.028;2022-09-19T10:05:19;10.38;;;1.60;;
21036;SDS011;10677;50.942;4.028;2022-09-19T10:10:30;6.57;;;1.27;;
21036;SDS011;10677;50.942;4.028;2022-09-19T10:13:01;8.20;;;1.27;;
21036;SDS011;10677;50.942;4.028;2022-09-19T10:15:50;10.30;;;1.52;;
21036;SDS011;10677;50.942;4.028;2022-09-19T10:18:20;7.45;;;1.13;;
21036;SDS011;10677;50.942;4.028;2022-09-19T10:20:51;6.40;;;1.10;;
21036;SDS011;10677;50.942;4.028;2022-09-19T10:23:21;6.93;;;1.20;;
21036;SDS011;10677;50.942;4.028;2022-09-19T10:25:49;9.05;;;1.65;;
21036;SDS011;10677;50.942;4.028;2022-09-19T10:28:25;8.45;;;1.42;;
21036;SDS011;10677;50.942;4.028;2022-09-19T10:31:18;8.25;;;1.27;;
21036;SDS011;10677;50.942;4.028;2022-09-19T10:33:59;7.50;;;2.97;;
21036;SDS011;10677;50.942;4.028;2022-09-19T10:36:31;12.15;;;1.63;;
21036;SDS011;10677;50.942;4.028;2022-09-19T10:39:06;10.43;;;1.48;;
21036;SDS011;10677;50.942;4.028;2022-09-19T10:41:34;6.43;;;0.80;;
21036;SDS011;10677;50.942;4.028;2022-09-19T10:44:02;5.35;;;1.17;;
21036;SDS011;10677;50.942;4.028;2022-09-19T10:46:36;8.05;;;1.25;;
21036;SDS011;10677;50.942;4.028;2022-09-19T10:49:19;6.53;;;1.02;;
21036;SDS011;10677;50.942;4.028;2022-09-19T10:51:49;4.93;;;1.00;;
21036;SDS011;10677;50.942;4.028;2022-09-19T10:54:33;7.28;;;1.25;;
21036;SDS011;10677;50.942;4.028;2022-09-19T10:57:53;4.88;;;0.65;;
21036;SDS011;10677;50.942;4.028;2022-09-19T11:00:03;7.65;;;1.30;;
21036;SDS011;10677;50.942;4.028;2022-09-19T11:02:30;8.07;;;0.90;;
21036;SDS011;10677;50.942;4.028;2022-09-19T11:04:59;7.03;;;1.13;;
21036;SDS011;10677;50.942;4.028;2022-09-19T11:07:41;7.43;;;0.93;;
21036;SDS011;10677;50.942;4.028;2022-09-19T11:13:20;8.02;;;1.05;;
21036;SDS011;10677;50.942;4.028;2022-09-19T11:51:53;7.07;;;0.80;;
21036;SDS011;10677;50.942;4.028;2022-09-19T11:54:25;4.75;;;0.73;;
21036;SDS011;10677;50.942;4.028;2022-09-19T11:57:02;7.78;;;0.93;;
21036;SDS011;10677;50.942;4.028;2022-09-19T12:10:55;7.50;;;0.80;;
21036;SDS011;10677;50.942;4.028;2022-09-19T12:13:41;9.60;;;0.88;;
21036;SDS011;10677;50.942;4.028;2022-09-19T12:16:22;6.13;;;1.10;;
21036;SDS011;10677;50.942;4.028;2022-09-19T12:19:00;6.35;;;0.85;;
21036;SDS011;10677;50.942;4.028;2022-09-19T12:21:37;8.82;;;1.20;;
21036;SDS011;10677;50.942;4.028;2022-09-19T12:24:11;4.30;;;0.80;;
21036;SDS011;10677;50.942;4.028;2022-09-19T12:27:18;5.03;;;0.77;;
21036;SDS011;10677;50.942;4.028;2022-09-19T12:30:18;5.20;;;1.52;;
21036;SDS011;10677;50.942;4.028;2022-09-19T12:33:08;7.45;;;1.10;;
21036;SDS011;10677;50.942;4.028;2022-09-19T12:35:49;3.63;;;0.80;;
21036;SDS011;10677;50.942;4.028;2022-09-19T12:42:18;5.70;;;0.80;;
21036;SDS011;10677;50.942;4.028;2022-09-19T12:44:34;7.82;;;1.70;;
21036;SDS011;10677;50.942;4.028;2022-09-19T12:50:15;6.15;;;1.20;;
21036;SDS011;10677;50.942;4.028;2022-09-19T12:58:24;6.15;;;1.10;;
21036;SDS011;10677;50.942;4.028;2022-09-19T13:04:04;5.25;;;0.65;;
21036;SDS011;10677;50.942;4.028;2022-09-19T13:06:46;7.38;;;0.90;;
21036;SDS011;10677;50.942;4.028;2022-09-19T13:09:16;8.30;;;1.08;;
21036;SDS011;10677;50.942;4.028;2022-09-19T13:11:58;4.50;;;0.70;;
21036;SDS011;10677;50.942;4.028;2022-09-19T13:17:11;5.03;;;0.90;;
21036;SDS011;10677;50.942;4.028;2022-09-19T13:19:56;7.40;;;1.00;;
21036;SDS011;10677;50.942;4.028;2022-09-19T13:22:50;5.20;;;1.15;;
21036;SDS011;10677;50.942;4.028;2022-09-19T13:25:38;4.95;;;1.08;;
21036;SDS011;10677;50.942;4.028;2022-09-19T13:30:51;5.53;;;1.48;;
21036;SDS011;10677;50.942;4.028;2022-09-19T13:33:42;9.50;;;1.60;;
21036;SDS011;10677;50.942;4.028;2022-09-19T13:38:43;6.93;;;1.17;;
21036;SDS011;10677;50.942;4.028;2022-09-19T13:41:18;7.35;;;1.25;;
21036;SDS011;10677;50.942;4.028;2022-09-19T13:46:52;7.72;;;1.17;;
21036;SDS011;10677;50.942;4.028;2022-09-19T13:52:07;6.97;;;0.95;;
21036;SDS011;10677;50.942;4.028;2022-09-19T13:57:20;3.75;;;0.63;;
21036;SDS011;10677;50.942;4.028;2022-09-19T13:59:56;8.38;;;1.35;;
21036;SDS011;10677;50.942;4.028;2022-09-19T14:13:00;5.32;;;0.80;;
21036;SDS011;10677;50.942;4.028;2022-09-19T14:25:10;5.97;;;0.80;;
21036;SDS011;10677;50.942;4.028;2022-09-19T14:29:38;6.80;;;1.33;;
21036;SDS011;10677;50.942;4.028;2022-09-19T14:32:30;6.47;;;0.90;;
21036;SDS011;10677;50.942;4.028;2022-09-19T14:35:19;4.75;;;0.93;;
21036;SDS011;10677;50.942;4.028;2022-09-19T14:38:30;3.85;;;0.88;;
21036;SDS011;10677;50.942;4.028;2022-09-19T14:41:03;3.47;;;0.50;;
21036;SDS011;10677;50.942;4.028;2022-09-19T14:47:08;5.50;;;0.95;;
21036;SDS011;10677;50.942;4.028;2022-09-19T14:52:20;5.35;;;0.70;;
21036;SDS011;10677;50.942;4.028;2022-09-19T14:54:51;5.97;;;0.80;;
21036;SDS011;10677;50.942;4.028;2022-09-19T14:57:29;3.65;;;0.95;;
21036;SDS011;10677;50.942;4.028;2022-09-19T15:00:11;4.95;;;0.70;;
21036;SDS011;10677;50.942;4.028;2022-09-19T15:02:48;3.13;;;0.70;;
21036;SDS011;10677;50.942;4.028;2022-09-19T15:05:20;5.78;;;0.90;;
21036;SDS011;10677;50.942;4.028;2022-09-19T15:07:49;5.95;;;1.02;;
21036;SDS011;10677;50.942;4.028;2022-09-19T15:10:32;5.18;;;0.90;;
21036;SDS011;10677;50.942;4.028;2022-09-19T15:13:23;4.50;;;1.13;;
21036;SDS011;10677;50.942;4.028;2022-09-19T15:16:02;4.72;;;1.00;;
21036;SDS011;10677;50.942;4.028;2022-09-19T15:18:38;5.10;;;0.93;;
21036;SDS011;10677;50.942;4.028;2022-09-19T15:21:13;5.68;;;0.82;;
21036;SDS011;10677;50.942;4.028;2022-09-19T15:23:42;3.28;;;0.70;;
21036;SDS011;10677;50.942;4.028;2022-09-19T15:26:12;2.30;;;0.50;;
21036;SDS011;10677;50.942;4.028;2022-09-19T15:29:00;3.50;;;0.60;;
21036;SDS011;10677;50.942;4.028;2022-09-19T15:31:28;4.85;;;0.80;;
21036;SDS011;10677;50.942;4.028;2022-09-19T15:34:03;6.18;;;1.00;;
21036;SDS011;10677;50.942;4.028;2022-09-19T15:36:35;6.57;;;0.85;;
21036;SDS011;10677;50.942;4.028;2022-09-19T15:39:03;9.13;;;0.98;;
21036;SDS011;10677;50.942;4.028;2022-09-19T15:41:31;7.45;;;0.88;;
21036;SDS011;10677;50.942;4.028;2022-09-19T15:43:58;4.65;;;0.63;;
21036;SDS011;10677;50.942;4.028;2022-09-19T15:48:59;4.95;;;0.73;;
21036;SDS011;10677;50.942;4.028;2022-09-19T15:51:30;4.13;;;0.77;;
21036;SDS011;10677;50.942;4.028;2022-09-19T15:54:04;6.03;;;0.75;;
21036;SDS011;10677;50.942;4.028;2022-09-19T15:56:43;6.10;;;0.80;;
21036;SDS011;10677;50.942;4.028;2022-09-19T15:59:18;4.68;;;0.70;;
21036;SDS011;10677;50.942;4.028;2022-09-19T16:01:54;4.57;;;0.60;;
21036;SDS011;10677;50.942;4.028;2022-09-19T16:04:29;5.47;;;0.82;;
21036;SDS011;10677;50.942;4.028;2022-09-19T16:06:56;3.17;;;0.55;;
21036;SDS011;10677;50.942;4.028;2022-09-19T16:09:43;6.38;;;0.60;;
21036;SDS011;10677;50.942;4.028;2022-09-19T16:14:58;2.95;;;0.50;;
21036;SDS011;10677;50.942;4.028;2022-09-19T16:22:58;5.38;;;0.85;;
21036;SDS011;10677;50.942;4.028;2022-09-19T16:25:49;4.13;;;0.68;;
21036;SDS011;10677;50.942;4.028;2022-09-19T16:28:21;3.03;;;0.60;;
21036;SDS011;10677;50.942;4.028;2022-09-19T16:33:42;11.07;;;1.20;;
21036;SDS011;10677;50.942;4.028;2022-09-19T16:36:22;5.55;;;0.68;;
21036;SDS011;10677;50.942;4.028;2022-09-19T16:41:43;4.82;;;0.60;;
21036;SDS011;10677;50.942;4.028;2022-09-19T16:46:52;5.95;;;0.85;;
21036;SDS011;10677;50.942;4.028;2022-09-19T16:49:25;8.15;;;0.90;;
21036;SDS011;10677;50.942;4.028;2022-09-19T16:51:51;4.85;;;1.02;;
21036;SDS011;10677;50.942;4.028;2022-09-19T16:54:18;6.43;;;1.38;;
21036;SDS011;10677;50.942;4.028;2022-09-19T16:56:45;6.57;;;1.10;;
21036;SDS011;10677;50.942;4.028;2022-09-19T16:59:15;3.75;;;0.80;;
21036;SDS011;10677;50.942;4.028;2022-09-19T17:01:42;5.45;;;0.90;;
21036;SDS011;10677;50.942;4.028;2022-09-19T17:04:09;5.07;;;0.88;;
21036;SDS011;10677;50.942;4.028;2022-09-19T17:06:39;5.78;;;1.00;;
21036;SDS011;10677;50.942;4.028;2022-09-19T17:09:04;5.57;;;1.05;;
21036;SDS011;10677;50.942;4.028;2022-09-19T17:11:30;7.03;;;1.30;;
21036;SDS011;10677;50.942;4.028;2022-09-19T17:13:56;6.70;;;1.27;;
21036;SDS011;10677;50.942;4.028;2022-09-19T17:16:22;4.78;;;1.00;;
21036;SDS011;10677;50.942;4.028;2022-09-19T17:18:47;5.30;;;0.90;;
21036;SDS011;10677;50.942;4.028;2022-09-19T17:21:13;4.07;;;0.80;;
21036;SDS011;10677;50.942;4.028;2022-09-19T17:23:40;7.13;;;1.35;;
21036;SDS011;10677;50.942;4.028;2022-09-19T17:26:12;5.50;;;1.30;;
21036;SDS011;10677;50.942;4.028;2022-09-19T17:28:39;5.00;;;1.00;;
21036;SDS011;10677;50.942;4.028;2022-09-19T17:31:06;4.55;;;1.15;;
21036;SDS011;10677;50.942;4.028;2022-09-19T17:33:37;7.10;;;1.45;;
21036;SDS011;10677;50.942;4.028;2022-09-19T17:36:02;5.63;;;0.88;;
21036;SDS011;10677;50.942;4.028;2022-09-19T17:38:30;6.63;;;1.08;;
21036;SDS011;10677;50.942;4.028;2022-09-19T17:40:57;9.02;;;0.80;;
21036;SDS011;10677;50.942;4.028;2022-09-19T17:43:24;4.40;;;0.80;;
21036;SDS011;10677;50.942;4.028;2022-09-19T17:45:57;4.95;;;0.70;;
21036;SDS011;10677;50.942;4.028;2022-09-19T17:48:25;7.55;;;1.25;;
21036;SDS011;10677;50.942;4.028;2022-09-19T17:50:51;8.35;;;1.17;;
21036;SDS011;10677;50.942;4.028;2022-09-19T17:53:18;6.18;;;0.90;;
21036;SDS011;10677;50.942;4.028;2022-09-19T17:55:43;6.93;;;1.00;;
21036;SDS011;10677;50.942;4.028;2022-09-19T17:58:09;6.35;;;0.90;;
21036;SDS011;10677;50.942;4.028;2022-09-19T18:00:36;5.63;;;0.82;;
21036;SDS011;10677;50.942;4.028;2022-09-19T18:03:02;5.57;;;1.33;;
21036;SDS011;10677;50.942;4.028;2022-09-19T18:05:56;5.47;;;1.08;;
21036;SDS011;10677;50.942;4.028;2022-09-19T18:08:23;4.25;;;1.10;;
21036;SDS011;10677;50.942;4.028;2022-09-19T18:10:50;6.07;;;1.20;;
21036;SDS011;10677;50.942;4.028;2022-09-19T18:13:16;7.60;;;1.00;;
21036;SDS011;10677;50.942;4.028;2022-09-19T18:15:41;8.95;;;1.05;;
21036;SDS011;10677;50.942;4.028;2022-09-19T18:18:11;11.07;;;1.35;;
21036;SDS011;10677;50.942;4.028;2022-09-19T18:20:37;5.93;;;1.58;;
21036;SDS011;10677;50.942;4.028;2022-09-19T18:23:03;9.52;;;1.50;;